Time;durP1;ratioP1;P1;durP2;ratioP2;P2;SDS_P1;SDS_P2;PMS_P1;PMS_P2;Temp;Humidity;BMP_temperature;BMP_pressure;BME280_temperature;BME280_humidity;BME280_pressure;Samples;Min_cycle;Max_cycle;Signal;HPM_P1;HPM_P2
2022/04/20 00:00:17;;;;;;;25.20;12.50;;;;;;;2.52;54.30;98710.32;105878;1278;99257;-69
2022/04/20 00:03:05;;;;;;;28.20;13.30;;;;;;;2.52;54.49;98713.45;105783;1278;108446;-69
2022/04/20 00:05:34;;;;;;;26.10;13.40;;;;;;;2.53;54.52;98710.96;105752;1278;97322;-68
2022/04/20 00:08:06;;;;;;;25.90;12.60;;;;;;;2.54;54.68;98713.35;105838;1277;99262;-68
2022/04/20 00:10:34;;;;;;;27.40;13.80;;;;;;;2.53;54.73;98713.41;105766;1277;113624;-67
2022/04/20 00:13:05;;;;;;;27.70;13.60;;;;;;;2.55;54.73;98715.27;105828;1278;98532;-68
2022/04/20 00:15:33;;;;;;;27.50;14.40;;;;;;;2.56;54.75;98718.88;105709;1277;108194;-68
2022/04/20 00:18:04;;;;;;;27.90;14.30;;;;;;;2.58;54.76;98719.66;105796;1278;100713;-69
2022/04/20 00:20:32;;;;;;;27.20;13.80;;;;;;;2.60;54.68;98712.05;105816;1278;99266;-68
2022/04/20 00:23:00;;;;;;;28.80;14.90;;;;;;;2.63;54.89;98709.65;105755;1277;114041;-67
2022/04/20 00:25:28;;;;;;;28.90;14.40;;;;;;;2.66;54.84;98712.33;105935;1277;99453;-69
2022/04/20 00:27:56;;;;;;;28.10;15.10;;;;;;;2.68;54.76;98711.17;105870;1278;108496;-68
2022/04/20 00:30:26;;;;;;;31.70;14.10;;;;;;;2.70;54.92;98706.88;105882;1279;100455;-68
2022/04/20 00:32:55;;;;;;;27.70;14.00;;;;;;;2.71;55.10;98704.23;105810;1277;99229;-67
2022/04/20 00:35:24;;;;;;;25.20;12.90;;;;;;;2.73;55.15;98699.89;105769;1278;113282;-67
2022/04/20 00:37:52;;;;;;;26.70;13.70;;;;;;;2.74;55.08;98704.23;105856;1279;99240;-68
2022/04/20 00:40:23;;;;;;;26.70;13.30;;;;;;;2.75;55.28;98703.31;105775;1277;107833;-68
2022/04/20 00:42:54;;;;;;;24.60;13.40;;;;;;;2.76;55.37;98699.92;105811;1279;99274;-66
2022/04/20 00:45:27;;;;;;;24.40;12.60;;;;;;;2.79;55.27;98699.45;105820;1279;99311;-69
2022/04/20 00:47:59;;;;;;;25.50;12.60;;;;;;;2.81;54.90;98695.30;105790;1279;113397;-67
2022/04/20 00:50:28;;;;;;;26.00;12.40;;;;;;;2.82;55.19;98694.41;105812;1279;98353;-68
2022/04/20 00:52:57;;;;;;;29.00;13.10;;;;;;;2.80;55.11;98692.20;105823;1278;107757;-68
2022/04/20 00:55:32;;;;;;;23.70;12.40;;;;;;;2.81;55.05;98686.39;105809;1279;99239;-65
2022/04/20 00:58:03;;;;;;;24.40;12.40;;;;;;;2.82;55.40;98687.91;105806;1279;99384;-65
2022/04/20 01:00:31;;;;;;;26.80;12.30;;;;;;;2.82;55.14;98687.05;105758;1279;113310;-66
2022/04/20 01:03:01;;;;;;;24.70;12.60;;;;;;;2.82;55.24;98683.38;105791;1278;99206;-66
2022/04/20 01:05:31;;;;;;;23.90;11.80;;;;;;;2.83;55.27;98681.76;105825;1279;108329;-68
2022/04/20 01:07:59;;;;;;;23.30;12.60;;;;;;;2.84;55.23;98678.57;105810;1278;97968;-69
2022/04/20 01:10:26;;;;;;;23.80;12.40;;;;;;;2.84;55.16;98680.84;105811;1279;99312;-65
2022/04/20 01:12:55;;;;;;;28.00;12.90;;;;;;;2.83;55.35;98676.34;105847;1277;113453;-70
2022/04/20 01:15:22;;;;;;;25.80;13.70;;;;;;;2.80;55.40;98671.05;105787;1279;99238;-65
2022/04/20 01:17:52;;;;;;;25.90;12.80;;;;;;;2.78;55.45;98665.70;105846;1279;108522;-67
2022/04/20 01:20:20;;;;;;;24.80;11.90;;;;;;;2.77;55.43;98663.11;105813;1278;99339;-69
2022/04/20 01:22:50;;;;;;;26.20;13.30;;;;;;;2.75;55.75;98659.35;105849;1278;96593;-67
2022/04/20 01:25:21;;;;;;;24.90;13.50;;;;;;;2.73;55.36;98654.37;105800;1279;112256;-67
2022/04/20 01:27:49;;;;;;;24.90;12.30;;;;;;;2.72;55.63;98651.81;105830;1279;99204;-67
2022/04/20 01:30:17;;;;;;;25.20;11.90;;;;;;;2.70;55.59;98644.20;105777;1279;108391;-68
2022/04/20 01:32:45;;;;;;;25.40;13.00;;;;;;;2.68;55.42;98645.35;105796;1278;99349;-68
2022/04/20 01:35:13;;;;;;;26.30;13.30;;;;;;;2.65;55.50;98641.09;105842;1279;99351;-68
2022/04/20 01:37:43;;;;;;;25.60;13.60;;;;;;;2.62;55.68;98638.25;105793;1277;114058;-67
2022/04/20 01:40:11;;;;;;;25.40;13.60;;;;;;;2.61;55.54;98637.08;105809;1277;99333;-66
2022/04/20 01:42:41;;;;;;;24.90;12.60;;;;;;;2.60;55.55;98636.61;105856;1279;108331;-67
2022/04/20 01:45:10;;;;;;;24.90;13.20;;;;;;;2.57;55.68;98634.12;105891;1278;99122;-67
2022/04/20 01:47:39;;;;;;;25.70;13.40;;;;;;;2.55;55.63;98632.63;105965;1279;99921;-68
2022/04/20 01:50:12;;;;;;;26.80;14.30;;;;;;;2.54;55.59;98633.91;105840;1279;113071;-68
2022/04/20 01:52:40;;;;;;;25.00;12.40;;;;;;;2.50;55.68;98633.56;105865;1279;100384;-70
2022/04/20 01:55:10;;;;;;;26.40;14.20;;;;;;;2.45;55.57;98635.88;105878;1279;107593;-68
2022/04/20 01:57:38;;;;;;;26.10;13.70;;;;;;;2.41;55.48;98640.45;105911;1279;99896;-68
2022/04/20 02:00:10;;;;;;;32.10;14.40;;;;;;;2.38;55.64;98642.69;106019;1279;99217;-68
2022/04/20 02:02:40;;;;;;;25.00;13.30;;;;;;;2.35;55.73;98643.72;105863;1279;113509;-68
2022/04/20 02:05:13;;;;;;;25.50;12.50;;;;;;;2.30;55.78;98644.23;105893;1279;98061;-67
2022/04/20 02:07:42;;;;;;;25.80;13.30;;;;;;;2.24;55.64;98646.83;105875;1278;108832;-67
2022/04/20 02:10:16;;;;;;;25.40;12.70;;;;;;;2.21;55.57;98643.66;105935;1279;99313;-68
2022/04/20 02:12:44;;;;;;;26.90;14.10;;;;;;;2.18;55.81;98638.85;105859;1279;99691;-69
2022/04/20 02:15:14;;;;;;;24.20;12.70;;;;;;;2.17;55.78;98634.55;105812;1279;113391;-68
2022/04/20 02:17:45;;;;;;;25.10;13.50;;;;;;;2.13;55.75;98630.33;105836;1278;99312;-67
2022/04/20 02:20:13;;;;;;;26.80;13.30;;;;;;;2.08;55.72;98630.73;105830;1277;108393;-68
2022/04/20 02:22:41;;;;;;;24.80;12.90;;;;;;;2.04;55.80;98634.96;105882;1278;99330;-65
2022/04/20 02:25:11;;;;;;;25.70;13.50;;;;;;;2.02;55.72;98629.96;105910;1279;99784;-69
2022/04/20 02:27:40;;;;;;;27.40;13.90;;;;;;;2.00;55.89;98630.59;105914;1278;112368;-68
2022/04/20 02:30:10;;;;;;;28.10;14.50;;;;;;;1.98;56.10;98632.27;105919;1278;99305;-68
2022/04/20 02:32:39;;;;;;;25.70;13.90;;;;;;;1.96;55.90;98634.08;105939;1279;108512;-67
2022/04/20 02:35:09;;;;;;;27.80;13.90;;;;;;;1.94;56.05;98631.55;105941;1279;99230;-67
2022/04/20 02:37:39;;;;;;;26.30;13.40;;;;;;;1.90;55.93;98630.65;105936;1279;99240;-68
2022/04/20 02:40:11;;;;;;;25.70;13.60;;;;;;;1.86;55.97;98631.52;105934;1278;113075;-68
2022/04/20 02:42:41;;;;;;;25.50;13.60;;;;;;;1.85;56.25;98633.14;105930;1279;99396;-68
2022/04/20 02:45:09;;;;;;;22.50;12.30;;;;;;;1.86;56.29;98631.18;105958;1279;108246;-70
2022/04/20 02:47:39;;;;;;;25.30;13.30;;;;;;;1.86;56.03;98631.16;105892;1278;97853;-69
2022/04/20 02:50:07;;;;;;;26.30;13.30;;;;;;;1.88;56.36;98623.40;105917;1279;98385;-67
2022/04/20 02:52:36;;;;;;;23.60;12.70;;;;;;;1.91;56.42;98624.31;105874;1279;113387;-67
2022/04/20 02:55:09;;;;;;;27.90;12.70;;;;;;;1.94;56.38;98623.64;105855;1279;98311;-69
2022/04/20 02:57:37;;;;;;;24.30;13.50;;;;;;;1.97;56.16;98628.25;105780;1279;108446;-67
2022/04/20 03:00:11;;;;;;;28.40;13.40;;;;;;;1.99;56.37;98629.05;105790;1279;99212;-65
2022/04/20 03:02:39;;;;;;;24.80;13.00;;;;;;;2.01;56.52;98629.66;105780;1279;99334;-69
2022/04/20 03:05:10;;;;;;;25.20;14.20;;;;;;;2.03;56.53;98631.00;105836;1279;113226;-69
2022/04/20 03:07:38;;;;;;;25.80;14.20;;;;;;;2.05;56.39;98632.80;105860;1277;99332;-68
2022/04/20 03:10:09;;;;;;;28.00;14.50;;;;;;;2.07;56.39;98630.27;105903;1277;108078;-68
2022/04/20 03:12:38;;;;;;;23.90;13.00;;;;;;;2.09;56.56;98630.88;105846;1278;99326;-70
2022/04/20 03:15:09;;;;;;;25.10;12.90;;;;;;;2.09;56.46;98633.84;105791;1279;99204;-69
2022/04/20 03:17:38;;;;;;;22.70;12.80;;;;;;;2.08;56.60;98635.10;105801;1279;112596;-68
2022/04/20 03:20:11;;;;;;;23.60;12.30;;;;;;;2.11;56.57;98636.38;105791;1279;99328;-67
2022/04/20 03:22:39;;;;;;;22.70;12.30;;;;;;;2.12;56.71;98637.20;105670;1279;108208;-68
2022/04/20 03:25:11;;;;;;;22.80;12.50;;;;;;;2.13;56.64;98632.27;105789;1278;99209;-65
2022/04/20 03:27:39;;;;;;;24.20;12.60;;;;;;;2.13;56.32;98632.09;105737;1279;99317;-72
2022/04/20 03:30:12;;;;;;;22.70;12.30;;;;;;;2.13;56.47;98633.13;105795;1279;113362;-68
2022/04/20 03:32:44;;;;;;;24.50;11.90;;;;;;;2.12;56.53;98634.41;105806;1279;98773;-68
2022/04/20 03:35:12;;;;;;;22.10;11.90;;;;;;;2.11;56.50;98637.61;105797;1279;107761;-67
2022/04/20 03:37:40;;;;;;;23.70;11.60;;;;;;;2.11;56.70;98637.77;105761;1279;99144;-68
2022/04/20 03:40:12;;;;;;;22.00;11.80;;;;;;;2.12;56.57;98638.08;105800;1278;99311;-68
2022/04/20 03:42:42;;;;;;;23.00;12.10;;;;;;;2.16;56.67;98641.23;103953;1279;2399540;-66
2022/04/20 03:45:11;;;;;;;23.30;11.90;;;;;;;2.18;56.88;98636.75;105717;1279;99330;-67
2022/04/20 03:47:39;;;;;;;20.20;10.80;;;;;;;2.19;56.82;98633.05;105695;1279;108434;-69
2022/04/20 03:50:09;;;;;;;23.20;11.90;;;;;;;2.20;56.62;98629.83;105764;1279;99248;-70
2022/04/20 03:52:38;;;;;;;22.10;12.40;;;;;;;2.23;56.74;98627.98;105796;1279;98040;-68
2022/04/20 03:55:10;;;;;;;25.40;12.10;;;;;;;2.26;56.74;98630.61;105751;1279;113142;-68
2022/04/20 03:57:40;;;;;;;23.00;11.80;;;;;;;2.26;56.62;98629.58;105720;1279;99345;-67
2022/04/20 04:00:12;;;;;;;22.70;11.80;;;;;;;2.26;57.09;98632.72;105883;1279;108172;-70
2022/04/20 04:02:40;;;;;;;25.10;12.90;;;;;;;2.28;56.79;98634.37;105766;1277;99274;-65
2022/04/20 04:05:09;;;;;;;23.00;12.20;;;;;;;2.31;56.91;98636.38;105795;1277;99371;-67
2022/04/20 04:07:41;;;;;;;23.50;12.10;;;;;;;2.31;56.93;98636.38;105879;1279;113410;-68
2022/04/20 04:10:10;;;;;;;23.60;12.00;;;;;;;2.32;56.95;98633.86;105790;1279;99013;-67
2022/04/20 04:12:38;;;;;;;24.70;12.80;;;;;;;2.34;56.93;98635.88;105769;1279;108373;-68
2022/04/20 04:15:09;;;;;;;25.00;12.50;;;;;;;2.33;56.91;98638.35;105764;1277;99326;-68
2022/04/20 04:17:37;;;;;;;25.30;13.10;;;;;;;2.32;56.94;98640.70;105833;1279;99142;-68
2022/04/20 04:20:07;;;;;;;23.60;13.40;;;;;;;2.31;56.96;98637.27;105778;1279;113392;-68
2022/04/20 04:22:36;;;;;;;25.80;13.90;;;;;;;2.31;57.05;98639.84;105782;1278;97686;-66
2022/04/20 04:25:07;;;;;;;24.20;12.90;;;;;;;2.34;57.12;98638.16;105789;1278;108151;-68
2022/04/20 04:27:36;;;;;;;24.90;13.20;;;;;;;2.31;57.00;98637.91;105727;1278;99208;-69
2022/04/20 04:30:06;;;;;;;23.90;11.80;;;;;;;2.33;57.03;98639.95;105777;1278;99228;-66
2022/04/20 04:32:34;;;;;;;24.80;12.00;;;;;;;2.34;57.11;98639.02;105736;1276;113446;-68
2022/04/20 04:35:08;;;;;;;24.30;12.30;;;;;;;2.34;56.90;98637.79;105942;1278;100021;-67
2022/04/20 04:37:36;;;;;;;23.60;12.30;;;;;;;2.35;57.10;98638.96;105718;1277;107678;-68
2022/04/20 04:40:07;;;;;;;26.50;12.80;;;;;;;2.36;57.19;98640.13;105762;1278;99236;-66
2022/04/20 04:42:35;;;;;;;27.00;13.00;;;;;;;2.38;57.24;98637.27;105807;1277;99263;-67
2022/04/20 04:50:39;;;;;;;24.00;12.80;;;;;;;2.44;57.23;98628.92;105781;1278;108342;-67
2022/04/20 04:53:09;;;;;;;26.20;12.90;;;;;;;2.47;57.48;98626.52;105813;1278;96634;-67
2022/04/20 04:55:40;;;;;;;23.60;12.80;;;;;;;2.49;57.44;98627.13;105838;1278;96652;-67
2022/04/20 04:58:08;;;;;;;26.30;12.50;;;;;;;2.52;57.43;98626.81;105816;1278;113314;-68
2022/04/20 05:00:35;;;;;;;23.30;11.60;;;;;;;2.55;57.41;98625.09;105913;1278;99193;-67
2022/04/20 05:03:07;;;;;;;23.20;12.50;;;;;;;2.59;57.59;98623.71;105831;1278;108320;-68
2022/04/20 05:05:37;;;;;;;24.00;12.20;;;;;;;2.62;57.39;98623.92;105847;1277;99359;-68
2022/04/20 05:08:07;;;;;;;25.90;13.20;;;;;;;2.66;57.55;98624.95;105860;1278;99358;-67
2022/04/20 05:10:38;;;;;;;26.70;14.80;;;;;;;2.71;57.44;98622.77;105787;1277;113346;-68
2022/04/20 05:13:08;;;;;;;27.30;14.40;;;;;;;2.76;57.47;98622.03;105842;1278;96649;-67
2022/04/20 05:15:36;;;;;;;28.70;14.50;;;;;;;2.80;57.65;98621.48;105974;1277;108502;-68
2022/04/20 05:18:07;;;;;;;26.30;15.10;;;;;;;2.82;57.62;98622.59;105990;1278;99248;-68
2022/04/20 05:20:35;;;;;;;28.70;14.60;;;;;;;2.86;57.78;98620.48;106004;1278;96639;-68
2022/04/20 05:23:08;;;;;;;26.30;14.80;;;;;;;2.91;57.74;98623.23;105877;1278;112007;-67
2022/04/20 05:25:36;;;;;;;;;;;;;;;2.96;57.77;98620.53;105838;1279;99327;-68
2022/04/20 05:28:07;;;;;;;25.40;13.70;;;;;;;3.00;57.84;98622.44;105736;1277;108696;-67
2022/04/20 05:30:35;;;;;;;32.50;15.30;;;;;;;3.06;58.07;98625.29;105829;1278;99359;-68
2022/04/20 05:33:05;;;;;;;24.40;13.60;;;;;;;3.13;57.85;98627.76;105918;1278;97656;-66
2022/04/20 05:35:34;;;;;;;27.40;14.60;;;;;;;3.21;57.67;98624.54;105984;1277;113335;-66
2022/04/20 05:43:38;;;;;;;24.20;12.50;;;;;;;3.57;58.01;98624.91;105858;1279;99254;-67
2022/04/20 05:46:09;;;;;;;25.80;13.50;;;;;;;3.67;58.11;98623.70;105904;1279;99314;-65
2022/04/20 05:48:37;;;;;;;27.30;14.60;;;;;;;3.77;58.04;98626.16;105879;1279;112407;-66
2022/04/20 05:51:07;;;;;;;24.90;13.60;;;;;;;3.88;58.07;98620.32;105897;1279;99327;-67
2022/04/20 05:53:36;;;;;;;27.90;12.90;;;;;;;4.00;57.83;98618.14;105873;1279;108226;-67
2022/04/20 05:56:05;;;;;;;23.80;11.20;;;;;;;4.12;58.02;98616.45;105901;1277;96681;-69
2022/04/20 05:58:34;;;;;;;24.50;11.80;;;;;;;4.24;57.75;98613.88;105824;1278;99328;-68
2022/04/20 06:01:02;;;;;;;24.70;12.40;;;;;;;4.36;58.07;98607.79;105919;1278;113356;-68
2022/04/20 06:03:31;;;;;;;26.40;13.90;;;;;;;4.49;58.16;98600.56;105926;1278;97362;-67
2022/04/20 06:06:03;;;;;;;24.40;12.30;;;;;;;4.63;58.15;98597.71;105826;1278;108461;-68
2022/04/20 06:08:32;;;;;;;24.20;12.70;;;;;;;4.77;58.07;98597.80;105862;1279;99221;-68
2022/04/20 06:11:02;;;;;;;26.80;12.70;;;;;;;4.90;58.19;98595.67;105853;1278;99233;-68
2022/04/20 06:13:32;;;;;;;25.40;12.80;;;;;;;5.03;58.14;98594.92;105744;1278;111603;-67
2022/04/20 06:16:08;;;;;;;25.60;12.60;;;;;;;5.13;58.03;98588.39;105701;1279;97838;-66
2022/04/20 06:18:37;;;;;;;26.30;12.40;;;;;;;5.21;58.03;98587.39;105671;1278;109857;-67
2022/04/20 06:21:06;;;;;;;24.40;11.90;;;;;;;5.24;58.02;98587.95;105563;1278;99248;-68
2022/04/20 06:23:34;;;;;;;27.40;13.40;;;;;;;5.30;58.06;98585.30;105787;1278;99118;-68
2022/04/20 06:26:02;;;;;;;24.60;11.40;;;;;;;5.40;58.06;98581.36;105957;1278;113237;-68
2022/04/20 06:28:30;;;;;;;24.40;11.80;;;;;;;5.51;57.94;98581.94;105888;1278;99344;-65
2022/04/20 06:30:59;;;;;;;22.90;10.00;;;;;;;5.61;58.16;98578.23;105758;1278;108514;-63
2022/04/20 06:33:27;;;;;;;23.70;11.00;;;;;;;5.69;58.08;98572.61;105804;1278;99214;-65
2022/04/20 06:35:58;;;;;;;22.40;10.30;;;;;;;5.80;58.02;98569.65;105921;1279;98045;-67
2022/04/20 06:38:27;;;;;;;22.60;10.80;;;;;;;5.88;57.96;98567.43;105857;1279;113150;-67
2022/04/20 06:40:58;;;;;;;25.80;11.70;;;;;;;5.95;58.11;98565.01;105953;1277;99327;-68
2022/04/20 06:43:33;;;;;;;24.10;11.50;;;;;;;6.01;58.12;98560.85;105842;1280;108485;-67
2022/04/20 06:46:03;;;;;;;22.80;10.50;;;;;;;6.10;57.98;98562.27;105838;1280;99369;-68
2022/04/20 06:48:32;;;;;;;21.80;9.60;;;;;;;6.12;57.96;98556.11;105919;1278;98357;-70
2022/04/20 06:51:02;;;;;;;20.30;9.60;;;;;;;6.14;57.83;98553.20;106007;1277;115484;-68
2022/04/20 06:59:04;;;;;;;18.90;8.70;;;;;;;6.33;57.84;98552.91;105897;1278;99975;-66
2022/04/20 07:01:32;;;;;;;21.90;10.70;;;;;;;6.37;57.68;98552.98;105922;1277;99259;-66
2022/04/20 07:04:02;;;;;;;21.60;10.40;;;;;;;6.41;57.61;98550.07;105885;1277;113459;-67
2022/04/20 07:06:30;;;;;;;23.20;10.90;;;;;;;6.53;57.43;98547.23;105779;1277;97801;-67
2022/04/20 07:08:59;;;;;;;24.30;11.90;;;;;;;6.71;57.66;98543.45;105831;1278;108474;-67
2022/04/20 07:11:28;;;;;;;24.20;12.00;;;;;;;6.90;57.62;98539.75;105781;1277;99278;-64
2022/04/20 07:13:57;;;;;;;21.70;10.80;;;;;;;7.58;56.86;98544.12;105886;1280;96665;-67
2022/04/20 07:16:27;;;;;;;25.90;12.70;;;;;;;8.74;55.86;98535.45;105852;1277;113169;-66
2022/04/20 07:18:57;;;;;;;24.00;12.80;;;;;;;10.01;55.70;98529.28;105824;1277;99228;-68
2022/04/20 07:21:27;;;;;;;23.70;13.00;;;;;;;10.67;56.43;98530.42;105775;1278;108969;-68
2022/04/20 07:23:56;;;;;;;25.40;13.10;;;;;;;11.17;56.04;98531.48;105817;1278;99241;-67
2022/04/20 07:26:26;;;;;;;26.00;13.50;;;;;;;12.50;55.13;98521.34;105906;1277;99273;-68
2022/04/20 07:28:55;;;;;;;27.00;12.90;;;;;;;13.92;55.01;98520.11;105966;1277;112895;-68
2022/04/20 07:31:24;;;;;;;23.30;11.80;;;;;;;15.16;54.98;98514.20;105730;1278;98957;-68
2022/04/20 07:33:52;;;;;;;21.30;11.00;;;;;;;15.23;54.65;98514.05;105784;1278;108475;-66
2022/04/20 07:36:21;;;;;;;24.40;13.30;;;;;;;15.68;54.66;98513.30;105778;1281;96711;-67
2022/04/20 07:38:49;;;;;;;20.10;10.50;;;;;;;16.44;53.58;98504.48;105716;1281;99363;-68
2022/04/20 07:41:18;;;;;;;22.80;13.30;;;;;;;16.12;54.22;98509.14;105865;1278;113577;-68
2022/04/20 07:43:46;;;;;;;24.60;12.40;;;;;;;15.46;54.63;98509.44;105820;1280;97651;-66
2022/04/20 07:46:17;;;;;;;22.00;13.50;;;;;;;15.87;54.04;98506.02;105878;1277;108402;-67
2022/04/20 07:48:49;;;;;;;24.10;14.50;;;;;;;16.98;53.49;98497.84;105840;1277;99243;-68
2022/04/20 07:51:17;;;;;;;22.20;12.90;;;;;;;18.11;52.89;98493.17;105871;1278;99293;-67
2022/04/20 07:53:46;;;;;;;23.40;12.70;;;;;;;18.77;52.88;98493.83;105831;1278;112938;-67
2022/04/20 07:56:14;;;;;;;20.70;12.00;;;;;;;18.95;52.65;98501.67;105698;1278;99425;-68
2022/04/20 07:58:42;;;;;;;20.30;12.40;;;;;;;19.23;52.47;98496.73;106083;1278;108290;-68
2022/04/20 08:01:11;;;;;;;18.90;11.20;;;;;;;19.22;52.40;98496.55;107536;1277;97357;-68
2022/04/20 08:03:39;;;;;;;18.60;10.20;;;;;;;18.98;51.96;98498.08;107260;1276;97134;-67
2022/04/20 08:06:06;;;;;;;18.80;11.20;;;;;;;18.68;52.24;98500.98;107521;1277;111972;-68
2022/04/20 08:08:34;;;;;;;19.10;10.20;;;;;;;18.83;52.01;98499.34;105753;1277;99276;-67
2022/04/20 08:11:03;;;;;;;16.60;9.50;;;;;;;18.77;51.79;98492.58;105827;1281;108030;-68
2022/04/20 08:16:18;;;;;;;20.80;11.80;;;;;;;17.48;51.25;98498.45;105839;1278;99232;-69
2022/04/20 08:18:47;;;;;;;20.70;10.40;;;;;;;16.40;51.35;98495.81;105863;1277;113498;-67
2022/04/20 08:21:19;;;;;;;20.10;11.30;;;;;;;15.65;51.37;98502.89;105923;1277;99363;-68
2022/04/20 08:23:50;;;;;;;21.20;11.80;;;;;;;15.01;51.05;98494.86;106900;1277;108792;-69
2022/04/20 08:26:17;;;;;;;21.70;12.90;;;;;;;14.33;50.36;98495.41;105827;1277;99328;-68
2022/04/20 08:28:46;;;;;;;21.00;12.00;;;;;;;13.60;50.51;98497.27;105835;1281;99105;-70
2022/04/20 08:31:16;;;;;;;21.30;11.50;;;;;;;12.90;50.19;98501.94;105836;1277;113351;-69
2022/04/20 08:33:44;;;;;;;21.00;11.30;;;;;;;12.32;50.02;98502.29;105866;1277;99252;-68
2022/04/20 08:36:12;;;;;;;22.40;13.00;;;;;;;11.86;49.77;98507.36;105785;1277;108374;-67
2022/04/20 08:38:44;;;;;;;21.80;12.30;;;;;;;11.41;49.49;98503.59;105886;1277;96653;-68
2022/04/20 08:41:18;;;;;;;22.10;11.50;;;;;;;11.07;49.55;98506.73;105984;1277;99202;-67
2022/04/20 08:43:49;;;;;;;22.80;11.90;;;;;;;10.72;49.20;98502.77;106013;1278;112734;-68
2022/04/20 08:46:22;;;;;;;23.10;12.40;;;;;;;10.45;49.15;98506.53;105925;1277;97677;-69
2022/04/20 08:48:56;;;;;;;23.30;12.50;;;;;;;10.21;49.13;98507.52;105859;1280;107737;-68
2022/04/20 08:52:36;;;;;;;23.90;12.80;;;;;;;10.03;49.04;98505.92;105908;1280;99236;-68
2022/04/20 08:54:12;;;;;;;23.30;11.20;;;;;;;9.91;48.98;98503.99;105928;1277;99434;-67
2022/04/20 08:59:27;;;;;;;22.30;11.20;;;;;;;9.79;48.29;98508.13;105763;1278;96760;-69
2022/04/20 09:02:02;;;;;;;22.30;11.00;;;;;;;9.67;48.40;98505.88;105752;1278;108247;-68
2022/04/20 09:04:30;;;;;;;22.50;12.10;;;;;;;9.63;47.88;98510.09;105781;1277;99368;-70
2022/04/20 09:07:01;;;;;;;23.80;11.30;;;;;;;9.65;47.99;98510.44;105824;1277;97790;-70
2022/04/20 09:09:30;;;;;;;20.60;10.00;;;;;;;9.60;47.98;98502.91;105921;1277;111869;-68
2022/04/20 09:11:59;;;;;;;21.50;9.90;;;;;;;9.53;48.10;98505.73;105983;1277;96524;-67
2022/04/20 09:14:30;;;;;;;19.50;9.80;;;;;;;9.46;47.93;98503.44;105799;1277;108312;-68
2022/04/20 09:17:01;;;;;;;22.60;10.70;;;;;;;9.35;47.98;98497.68;105877;1277;99252;-68
2022/04/20 09:19:29;;;;;;;21.20;8.90;;;;;;;9.29;47.85;98496.61;105877;1277;99365;-69
2022/04/20 09:21:57;;;;;;;21.90;10.80;;;;;;;9.15;47.65;98492.89;105833;1277;113362;-67
2022/04/20 09:24:25;;;;;;;22.70;11.30;;;;;;;8.94;47.65;98500.25;105851;1280;97836;-69
2022/04/20 09:26:57;;;;;;;24.70;11.60;;;;;;;8.79;47.66;98498.52;105812;1277;108472;-67
2022/04/20 09:29:25;;;;;;;22.40;11.60;;;;;;;8.70;47.75;98497.27;105872;1278;99134;-66
2022/04/20 09:31:54;;;;;;;22.80;11.60;;;;;;;8.65;47.65;98497.42;105769;1278;99122;-68
2022/04/20 09:34:25;;;;;;;21.80;11.50;;;;;;;8.56;47.60;98500.73;105712;1278;113313;-69
2022/04/20 09:36:54;;;;;;;21.90;10.20;;;;;;;8.46;47.70;98499.70;105801;1278;96611;-68
2022/04/20 09:39:30;;;;;;;22.10;10.20;;;;;;;8.41;47.68;98495.98;105812;1277;107600;-67
2022/04/20 09:42:05;;;;;;;19.50;9.70;;;;;;;8.38;47.55;98501.70;105751;1277;99308;-68
2022/04/20 09:44:35;;;;;;;22.10;10.80;;;;;;;8.32;47.61;98502.83;105740;1277;99385;-67
2022/04/20 09:50:00;;;;;;;19.80;9.10;;;;;;;8.27;47.70;98508.31;105821;1277;99288;-69
2022/04/20 09:52:38;;;;;;;20.50;8.90;;;;;;;8.24;47.66;98507.83;105859;1279;107855;-69
2022/04/20 09:55:11;;;;;;;21.50;9.20;;;;;;;8.20;47.57;98503.67;105775;1277;96617;-68
2022/04/20 09:57:41;;;;;;;20.80;9.10;;;;;;;8.20;47.53;98504.05;105839;1279;96753;-67
2022/04/20 10:00:14;;;;;;;21.40;9.90;;;;;;;8.22;47.67;98505.67;105808;1277;113335;-69
2022/04/20 10:02:48;;;;;;;22.60;10.40;;;;;;;8.18;47.45;98505.04;105847;1277;99333;-68
2022/04/20 10:05:22;;;;;;;20.70;10.00;;;;;;;8.19;47.65;98500.70;105787;1277;108910;-68
2022/04/20 10:07:58;;;;;;;21.50;10.10;;;;;;;8.21;47.73;98501.81;105818;1277;99316;-70
2022/04/20 10:10:30;;;;;;;22.90;10.70;;;;;;;8.24;47.76;98508.71;105834;1279;99340;-68
2022/04/20 10:12:59;;;;;;;23.80;12.00;;;;;;;8.20;47.48;98503.64;105789;1279;113415;-67
2022/04/20 10:18:27;;;;;;;26.00;12.90;;;;;;;8.12;47.63;98498.03;105730;1279;108419;-67
2022/04/20 10:21:00;;;;;;;23.50;12.90;;;;;;;8.19;47.71;98498.81;105688;1280;99265;-69
2022/04/20 10:23:30;;;;;;;26.70;13.30;;;;;;;8.27;47.57;98494.17;105800;1280;99341;-67
2022/04/20 10:26:06;;;;;;;25.00;12.70;;;;;;;8.29;47.56;98498.77;105912;1279;115512;-68
2022/04/20 10:29:09;;;;;;;24.90;13.10;;;;;;;8.30;47.68;98504.74;105935;1279;99298;-67
2022/04/20 10:31:48;;;;;;;22.50;11.40;;;;;;;8.27;47.41;98504.05;105952;1279;108369;-68
2022/04/20 10:34:21;;;;;;;23.40;10.90;;;;;;;8.25;47.59;98501.88;105913;1279;96679;-67
2022/04/20 10:36:58;;;;;;;25.40;13.00;;;;;;;8.24;47.78;98500.22;105788;1279;99298;-66
2022/04/20 10:39:33;;;;;;;24.60;11.50;;;;;;;8.27;47.62;98496.30;105728;1279;113707;-68
2022/04/20 10:42:11;;;;;;;23.10;11.50;;;;;;;8.35;47.70;98496.41;105827;1279;99251;-68
2022/04/20 10:45:00;;;;;;;25.80;13.10;;;;;;;8.42;47.76;98499.64;105755;1279;107838;-68
2022/04/20 10:47:33;;;;;;;25.30;14.30;;;;;;;8.33;47.68;98498.33;105883;1279;99231;-69
2022/04/20 10:50:20;;;;;;;27.00;14.80;;;;;;;8.17;47.80;98498.27;105918;1279;99400;-68
2022/04/20 10:53:04;;;;;;;27.40;14.70;;;;;;;8.14;47.93;98498.83;105398;1279;112880;-68
2022/04/20 10:55:36;;;;;;;27.60;14.30;;;;;;;8.18;48.01;98496.36;105613;1281;98404;-69
2022/04/20 10:58:26;;;;;;;23.80;12.50;;;;;;;8.27;48.07;98497.01;105710;1279;108370;-69
2022/04/20 11:01:11;;;;;;;26.80;13.90;;;;;;;8.37;48.20;98495.20;105802;1279;99291;-68
2022/04/20 11:03:54;;;;;;;26.50;14.30;;;;;;;8.45;48.17;98494.48;105688;1279;99211;-67
2022/04/20 11:06:28;;;;;;;27.70;14.30;;;;;;;8.57;48.08;98497.35;105780;1279;112862;-68
2022/04/20 11:09:02;;;;;;;26.40;13.00;;;;;;;8.67;48.14;98502.97;105738;1279;96551;-69
2022/04/20 11:20:15;;;;;;;25.90;13.30;;;;;;;8.84;48.03;98503.16;105771;1279;113488;-68
2022/04/20 11:22:46;;;;;;;26.50;14.60;;;;;;;8.79;48.18;98504.38;105879;1279;99291;-69
2022/04/20 11:25:14;;;;;;;26.80;14.40;;;;;;;8.83;48.38;98503.23;105777;1279;108525;-68
2022/04/20 11:27:46;;;;;;;25.80;14.50;;;;;;;8.88;48.23;98501.05;105729;1279;99250;-67
2022/04/20 11:30:14;;;;;;;27.60;14.50;;;;;;;8.87;48.02;98497.80;105722;1279;99199;-68
2022/04/20 11:32:45;;;;;;;26.30;13.50;;;;;;;8.82;48.15;98496.77;105709;1278;113444;-68
2022/04/20 11:35:16;;;;;;;26.30;14.30;;;;;;;8.85;48.33;98500.05;105624;1279;96624;-69
2022/04/20 11:37:56;;;;;;;26.70;14.50;;;;;;;8.83;48.27;98496.45;105753;1279;108792;-70
2022/04/20 11:40:27;;;;;;;28.90;15.70;;;;;;;8.76;48.10;98494.55;105798;1279;97638;-68
2022/04/20 11:43:10;;;;;;;27.40;15.00;;;;;;;8.68;48.12;98492.13;105819;1279;96655;-68
2022/04/20 11:45:58;;;;;;;28.30;16.00;;;;;;;8.70;48.12;98490.57;105674;1279;113022;-68
2022/04/20 11:48:32;;;;;;;26.80;15.70;;;;;;;8.72;48.31;98481.76;105729;1279;96668;-71
2022/04/20 11:51:01;;;;;;;26.00;15.10;;;;;;;8.74;48.37;98477.00;105751;1279;107621;-69
2022/04/20 11:53:42;;;;;;;29.00;15.60;;;;;;;8.76;48.35;98480.92;105656;1279;99391;-69
2022/04/20 11:56:10;;;;;;;28.40;15.20;;;;;;;8.72;48.37;98479.45;105759;1279;99330;-68
2022/04/20 11:58:40;;;;;;;29.80;16.30;;;;;;;8.72;48.52;98482.14;105804;1279;113953;-69
2022/04/20 12:01:11;;;;;;;30.50;16.20;;;;;;;8.72;48.48;98479.64;105816;1279;97818;-69
2022/04/20 12:03:45;;;;;;;27.90;15.30;;;;;;;8.74;48.62;98472.97;105668;1279;107735;-67
2022/04/20 12:06:13;;;;;;;28.70;16.10;;;;;;;8.71;48.47;98468.78;105672;1279;99281;-68